createdAt,value
2022-12-08T00:00:07.618Z,40.12
2022-12-08T00:01:07.607Z,40.12
2022-12-08T00:02:07.686Z,43.83
2022-12-08T00:03:07.688Z,44.63
2022-12-08T00:04:07.566Z,47.05
2022-12-08T00:05:07.561Z,40.44
2022-12-08T00:06:07.560Z,42.06
2022-12-08T00:07:07.543Z,46.89
2022-12-08T00:08:07.595Z,43.02
2022-12-08T00:09:07.529Z,40.77
2022-12-08T00:10:39.836Z,39.96
2022-12-08T00:11:09.514Z,44.15
2022-12-08T00:12:07.521Z,42.54
2022-12-08T00:13:07.497Z,46.25
2022-12-08T00:14:07.486Z,45.28
2022-12-08T00:15:08.159Z,49.63
2022-12-08T00:16:07.545Z,48.02
2022-12-08T00:17:07.491Z,52.37
2022-12-08T00:18:07.464Z,45.12
2022-12-08T00:19:07.449Z,45.28
2022-12-08T00:20:07.442Z,44.63
2022-12-08T00:21:07.451Z,40.12
2022-12-08T00:22:07.426Z,40.93
2022-12-08T00:23:07.428Z,39.64
2022-12-08T00:24:07.412Z,39.64
2022-12-08T00:25:07.406Z,39.32
2022-12-08T00:26:07.402Z,49.47
2022-12-08T00:29:09.990Z,39.80
2022-12-08T00:30:07.956Z,40.77
2022-12-08T00:31:07.957Z,43.18
2022-12-08T00:32:07.993Z,46.25
2022-12-08T00:33:07.935Z,41.89
2022-12-08T00:34:07.926Z,42.86
2022-12-08T00:35:07.921Z,41.57
2022-12-08T00:36:09.014Z,40.28
2022-12-08T00:37:09.009Z,48.18
2022-12-08T00:38:08.999Z,42.22
2022-12-08T00:39:08.986Z,41.41
2022-12-08T00:40:08.973Z,39.64
2022-12-08T00:41:08.966Z,39.48
2022-12-08T00:42:08.990Z,41.41
2022-12-08T00:43:08.949Z,40.12
2022-12-08T00:44:09.828Z,40.93
2022-12-08T00:45:09.955Z,40.61
2022-12-08T00:46:09.005Z,48.82
2022-12-08T00:47:08.927Z,40.12
2022-12-08T00:48:08.915Z,40.44
2022-12-08T00:49:08.911Z,38.99
2022-12-08T00:50:08.898Z,48.02
2022-12-08T00:51:08.891Z,38.99
2022-12-08T00:52:08.908Z,53.98
2022-12-08T00:53:08.891Z,39.64
2022-12-08T00:54:08.872Z,40.28
2022-12-08T00:55:08.863Z,38.83
2022-12-08T00:56:08.855Z,46.57
2022-12-08T00:57:08.856Z,39.48
2022-12-08T00:58:08.843Z,39.80
2022-12-08T00:59:08.838Z,40.12
2022-12-08T01:00:08.836Z,41.25
2022-12-08T01:01:08.860Z,39.64
2022-12-08T01:02:08.815Z,40.28
2022-12-08T01:03:08.841Z,46.57
2022-12-08T01:04:08.805Z,47.70
2022-12-08T01:05:08.783Z,41.73
2022-12-08T01:06:08.773Z,43.02
2022-12-08T01:07:08.768Z,42.86
2022-12-08T01:08:08.899Z,44.79
2022-12-08T01:09:08.754Z,50.92
2022-12-08T01:10:08.743Z,45.92
2022-12-08T01:11:08.740Z,40.61
2022-12-08T01:12:08.746Z,44.15
2022-12-08T01:13:08.725Z,48.50
2022-12-08T01:14:08.722Z,48.66
2022-12-08T01:15:08.713Z,54.30
2022-12-08T01:16:08.755Z,40.12
2022-12-08T01:17:08.755Z,39.80
2022-12-08T01:18:08.687Z,54.95
2022-12-08T01:19:08.683Z,43.83
2022-12-08T01:20:08.684Z,46.57
2022-12-08T01:21:08.659Z,45.12
2022-12-08T01:22:08.664Z,47.53
2022-12-08T01:23:08.646Z,44.79
2022-12-08T01:24:08.645Z,43.51
2022-12-08T01:25:08.633Z,55.59
2022-12-08T01:26:08.620Z,43.51
2022-12-08T01:27:08.619Z,43.02
2022-12-08T01:28:08.605Z,40.61
2022-12-08T01:29:08.606Z,42.86
2022-12-08T01:30:08.615Z,42.54
2022-12-08T01:31:08.633Z,40.93
2022-12-08T01:32:08.574Z,40.93
2022-12-08T01:33:08.573Z,41.41
2022-12-08T01:34:08.609Z,42.22
2022-12-08T01:35:08.553Z,41.09
2022-12-08T01:36:08.551Z,44.31
2022-12-08T01:37:08.551Z,43.18
2022-12-08T01:38:08.539Z,44.15
2022-12-08T01:39:08.536Z,44.63
2022-12-08T01:40:08.522Z,41.09
2022-12-08T01:41:08.511Z,41.57
2022-12-08T01:42:08.496Z,45.12
2022-12-08T01:43:08.497Z,39.80
2022-12-08T01:44:08.557Z,40.28
2022-12-08T01:45:08.477Z,52.69
2022-12-08T01:46:08.533Z,40.93
2022-12-08T01:47:08.462Z,44.15
2022-12-08T01:48:08.529Z,49.63
2022-12-08T01:49:08.450Z,50.60
2022-12-08T01:50:08.438Z,49.79
2022-12-08T01:51:08.438Z,49.31
2022-12-08T01:52:09.347Z,40.77
2022-12-08T01:53:08.419Z,41.57
2022-12-08T01:54:08.401Z,44.63
2022-12-08T01:55:09.407Z,42.22
2022-12-08T01:56:08.429Z,46.73
2022-12-08T01:57:08.408Z,44.79
2022-12-08T01:58:08.377Z,42.70
2022-12-08T01:59:08.378Z,43.99
2022-12-08T02:00:08.642Z,47.21
2022-12-08T02:01:08.373Z,43.51
2022-12-08T02:02:08.392Z,43.83
2022-12-08T02:03:08.371Z,44.63
2022-12-08T02:04:08.335Z,42.86
2022-12-08T02:05:08.334Z,43.02
2022-12-08T02:06:08.330Z,44.31
2022-12-08T02:07:08.539Z,48.02
2022-12-08T02:08:08.362Z,44.31
2022-12-08T02:09:08.301Z,48.02
2022-12-08T02:10:08.320Z,41.73
2022-12-08T02:11:08.293Z,42.86
2022-12-08T02:12:08.284Z,40.93
2022-12-08T02:13:08.300Z,43.02
2022-12-08T02:14:08.339Z,42.06
2022-12-08T02:15:08.339Z,42.22
2022-12-08T02:16:08.715Z,45.28
2022-12-08T02:17:08.250Z,51.08
2022-12-08T02:18:08.233Z,45.76
2022-12-08T02:19:30.158Z,39.48
2022-12-08T02:20:11.872Z,55.43
2022-12-08T02:21:08.213Z,51.08
2022-12-08T02:22:08.213Z,47.86
2022-12-08T02:23:08.192Z,47.05
2022-12-08T02:24:08.194Z,40.44
2022-12-08T02:25:08.188Z,39.64
2022-12-08T02:26:08.218Z,46.57
2022-12-08T02:27:08.206Z,48.82
2022-12-08T02:28:08.172Z,42.70
2022-12-08T02:29:08.165Z,39.80
2022-12-08T02:30:08.216Z,39.32
2022-12-08T02:31:08.303Z,47.37
2022-12-08T02:32:08.131Z,44.79
2022-12-08T02:33:08.133Z,39.64
2022-12-08T02:34:08.124Z,39.80
2022-12-08T02:35:08.109Z,41.73
2022-12-08T02:36:08.106Z,41.25
2022-12-08T02:37:08.118Z,44.63
2022-12-08T02:38:08.083Z,39.32
2022-12-08T02:39:08.114Z,39.16
2022-12-08T02:40:08.275Z,41.25
2022-12-08T02:41:08.065Z,40.61
2022-12-08T02:42:08.077Z,39.80
2022-12-08T02:43:08.042Z,54.46
2022-12-08T02:44:08.034Z,49.63
2022-12-08T02:45:08.033Z,40.12
2022-12-08T02:46:08.161Z,38.67
2022-12-08T02:47:08.033Z,38.19
2022-12-08T02:48:08.003Z,39.32
2022-12-08T02:49:08.005Z,39.48
2022-12-08T02:50:08.006Z,40.77
2022-12-08T02:51:07.986Z,48.18
2022-12-08T02:52:07.978Z,42.54
2022-12-08T02:54:53.203Z,46.25
2022-12-08T02:55:53.191Z,47.70
2022-12-08T02:56:54.277Z,40.77
2022-12-08T02:57:54.279Z,40.44
2022-12-08T02:58:54.260Z,44.15
2022-12-08T02:59:54.255Z,41.25
2022-12-08T03:00:54.252Z,42.54
2022-12-08T03:01:54.286Z,50.92
2022-12-08T03:02:54.327Z,40.77
2022-12-08T03:03:54.262Z,44.47
2022-12-08T03:04:54.225Z,49.63
2022-12-08T03:05:54.206Z,41.25
2022-12-08T03:06:54.201Z,41.57
2022-12-08T03:07:54.254Z,41.25
2022-12-08T03:08:54.180Z,42.06
2022-12-08T03:09:54.175Z,40.93
2022-12-08T03:10:54.165Z,47.70
2022-12-08T03:11:54.162Z,41.25
2022-12-08T03:12:54.170Z,41.41
2022-12-08T03:13:54.150Z,47.21
2022-12-08T03:14:54.147Z,51.08
2022-12-08T03:15:54.193Z,45.92
2022-12-08T03:16:54.118Z,46.73
2022-12-08T03:17:54.130Z,47.86
2022-12-08T03:18:54.132Z,48.82
2022-12-08T03:19:54.104Z,46.41
2022-12-08T03:20:54.090Z,46.41
2022-12-08T03:21:54.087Z,49.15
2022-12-08T03:22:54.072Z,46.57
2022-12-08T03:23:54.072Z,54.95
2022-12-08T03:24:54.071Z,48.66
2022-12-08T03:25:54.051Z,45.12
2022-12-08T03:26:54.066Z,46.57
2022-12-08T03:27:54.036Z,43.67
2022-12-08T03:28:54.032Z,54.62
2022-12-08T03:29:54.024Z,46.25
2022-12-08T03:30:54.106Z,59.30
2022-12-08T03:31:54.009Z,56.07
2022-12-08T03:32:53.997Z,43.51
2022-12-08T03:33:53.992Z,44.31
2022-12-08T03:34:54.680Z,44.15
2022-12-08T03:35:53.974Z,45.12
2022-12-08T03:36:53.971Z,41.73
2022-12-08T03:37:53.959Z,41.41
2022-12-08T03:38:53.981Z,42.54
2022-12-08T03:39:53.945Z,51.72
2022-12-08T03:40:53.937Z,51.24
2022-12-08T03:41:53.943Z,49.15
2022-12-08T03:42:53.924Z,48.66
2022-12-08T03:43:53.906Z,49.31
2022-12-08T03:44:53.906Z,50.27
2022-12-08T03:45:53.898Z,50.76
2022-12-08T03:46:53.881Z,53.66
2022-12-08T03:47:53.886Z,49.47
2022-12-08T03:48:53.867Z,44.47
2022-12-08T03:49:53.855Z,42.22
2022-12-08T03:50:53.861Z,50.11
2022-12-08T03:51:53.849Z,49.31
2022-12-08T03:52:53.835Z,52.69
2022-12-08T03:53:54.842Z,57.52
2022-12-08T03:54:53.822Z,58.33
2022-12-08T03:55:53.831Z,61.07
2022-12-08T03:56:53.814Z,57.04
2022-12-08T03:57:53.802Z,57.04
2022-12-08T03:58:53.792Z,55.59
2022-12-08T03:59:53.797Z,45.60
2022-12-08T04:00:53.846Z,45.60
2022-12-08T04:01:53.838Z,52.85
2022-12-08T04:02:53.902Z,47.53
2022-12-08T04:03:53.768Z,57.04
2022-12-08T04:04:53.745Z,48.82
2022-12-08T04:05:53.756Z,52.69
2022-12-08T04:06:53.765Z,52.37
2022-12-08T04:07:53.806Z,47.05
2022-12-08T04:08:53.724Z,47.86
2022-12-08T04:09:53.707Z,51.40
2022-12-08T04:10:53.778Z,48.50
2022-12-08T04:11:53.703Z,54.62
2022-12-08T04:12:53.704Z,64.45
2022-12-08T04:13:53.686Z,59.94
2022-12-08T04:14:53.700Z,52.37
2022-12-08T04:15:53.760Z,55.27
2022-12-08T04:16:53.694Z,55.91
2022-12-08T04:17:53.648Z,54.62
2022-12-08T04:18:53.664Z,58.49
2022-12-08T04:19:53.631Z,62.84
2022-12-08T04:20:53.681Z,57.20
2022-12-08T04:21:53.628Z,52.69
2022-12-08T04:22:53.612Z,55.75
2022-12-08T04:23:57.635Z,56.40
2022-12-08T04:24:56.163Z,55.27
2022-12-08T04:25:53.688Z,49.47
2022-12-08T04:26:53.607Z,48.66
2022-12-08T04:27:53.575Z,53.17
2022-12-08T04:28:53.563Z,56.72
2022-12-08T04:29:53.560Z,58.49
2022-12-08T04:30:53.597Z,55.75
2022-12-08T04:31:53.543Z,60.75
2022-12-08T04:32:53.539Z,58.33
2022-12-08T04:33:53.521Z,46.73
2022-12-08T04:34:53.522Z,58.33
2022-12-08T04:35:53.623Z,56.40
2022-12-08T04:36:53.514Z,53.98
2022-12-08T04:37:53.497Z,60.91
2022-12-08T04:38:54.098Z,56.88
2022-12-08T04:39:53.496Z,56.24
2022-12-08T04:40:53.488Z,54.30
2022-12-08T04:41:53.475Z,52.69
2022-12-08T04:42:53.473Z,58.49
2022-12-08T04:43:53.449Z,59.94
2022-12-08T04:44:53.440Z,55.91
2022-12-08T04:45:53.488Z,51.40
2022-12-08T04:46:53.517Z,58.01
2022-12-08T04:47:53.429Z,56.24
2022-12-08T04:48:53.408Z,56.56
2022-12-08T04:49:53.403Z,62.52
2022-12-08T04:50:53.413Z,62.36
2022-12-08T04:51:53.387Z,63.97
2022-12-08T04:52:53.408Z,62.36
2022-12-08T04:53:53.385Z,55.43
2022-12-08T04:54:53.413Z,54.14
2022-12-08T04:55:53.365Z,55.43
2022-12-08T04:56:53.366Z,60.26
2022-12-08T04:57:53.347Z,60.10
2022-12-08T04:58:53.339Z,58.97
2022-12-08T04:59:53.326Z,60.75
2022-12-08T05:00:53.446Z,53.98
2022-12-08T05:01:53.484Z,56.72
2022-12-08T05:02:53.375Z,62.04
2022-12-08T05:03:53.301Z,56.88
2022-12-08T05:04:53.295Z,57.52
2022-12-08T05:05:53.281Z,58.01
2022-12-08T05:06:53.283Z,57.52
2022-12-08T05:07:53.308Z,59.62
2022-12-08T05:08:53.260Z,59.30
2022-12-08T05:09:53.255Z,54.95
2022-12-08T05:10:53.246Z,60.75
2022-12-08T05:11:53.237Z,58.97
2022-12-08T05:12:53.236Z,58.97
2022-12-08T05:13:53.243Z,59.94
2022-12-08T05:14:53.219Z,52.05
2022-12-08T05:15:53.272Z,58.97
2022-12-08T05:16:53.240Z,61.55
2022-12-08T05:17:53.204Z,61.87
2022-12-08T05:18:53.177Z,62.04
2022-12-08T05:19:54.193Z,61.87
2022-12-08T05:20:53.168Z,59.78
2022-12-08T05:21:53.184Z,60.91
2022-12-08T05:22:53.156Z,59.30
2022-12-08T05:23:53.145Z,60.26
2022-12-08T05:24:53.136Z,61.55
2022-12-08T05:25:53.126Z,58.01
2022-12-08T05:26:53.123Z,63.33
2022-12-08T05:28:01.666Z,62.52
2022-12-08T05:28:55.099Z,60.91
2022-12-08T05:29:53.088Z,59.94
2022-12-08T05:30:53.091Z,60.42
2022-12-08T05:31:53.168Z,60.75
2022-12-08T05:32:53.085Z,60.10
2022-12-08T05:33:53.069Z,57.04
2022-12-08T05:34:53.077Z,61.07
2022-12-08T05:35:53.054Z,64.13
2022-12-08T05:36:53.042Z,58.65
2022-12-08T05:37:53.034Z,62.68
2022-12-08T05:38:53.059Z,60.75
2022-12-08T05:39:53.015Z,59.94
2022-12-08T05:40:53.056Z,60.75
2022-12-08T05:41:53.006Z,58.17
2022-12-08T05:42:52.999Z,62.84
2022-12-08T05:43:52.995Z,62.52
2022-12-08T05:44:52.976Z,60.59
2022-12-08T05:45:53.029Z,57.36
2022-12-08T05:46:52.961Z,60.75
2022-12-08T05:47:52.965Z,60.91
2022-12-08T05:48:52.965Z,57.36
2022-12-08T05:49:52.943Z,64.13
2022-12-08T05:50:52.939Z,63.00
2022-12-08T05:51:52.941Z,64.94
2022-12-08T05:52:53.562Z,61.55
2022-12-08T05:53:53.694Z,58.49
2022-12-08T05:54:52.907Z,61.55
2022-12-08T05:55:52.897Z,60.26
2022-12-08T05:56:52.891Z,59.62
2022-12-08T05:57:52.895Z,61.23
2022-12-08T05:58:52.877Z,62.20
2022-12-08T05:59:52.868Z,60.42
2022-12-08T06:00:52.859Z,62.68
2022-12-08T06:01:52.918Z,61.71
2022-12-08T06:02:52.978Z,65.10
2022-12-08T06:03:54.691Z,62.04
2022-12-08T06:04:52.830Z,61.07
2022-12-08T06:05:52.817Z,60.42
2022-12-08T06:06:53.686Z,61.55
2022-12-08T06:07:52.915Z,60.26
2022-12-08T06:08:52.795Z,60.26
2022-12-08T06:09:52.786Z,61.39
2022-12-08T06:10:52.780Z,63.00
2022-12-08T06:11:52.773Z,61.87
2022-12-08T06:12:52.754Z,63.00
2022-12-08T06:13:53.693Z,59.78
2022-12-08T06:14:52.749Z,63.16
2022-12-08T06:15:52.734Z,63.16
2022-12-08T06:16:52.782Z,64.94
2022-12-08T06:17:52.717Z,59.78
2022-12-08T06:18:52.718Z,61.55
2022-12-08T06:19:52.702Z,62.68
2022-12-08T06:20:52.697Z,63.65
2022-12-08T06:21:52.708Z,64.61
2022-12-08T06:22:52.677Z,62.52
2022-12-08T06:23:52.675Z,62.68
2022-12-08T06:24:52.666Z,64.61
2022-12-08T06:25:52.654Z,62.84
2022-12-08T06:26:52.657Z,55.91
2022-12-08T06:27:52.644Z,62.36
2022-12-08T06:28:52.636Z,62.68
2022-12-08T06:29:52.630Z,61.07
2022-12-08T06:30:52.618Z,64.45
2022-12-08T06:31:52.708Z,65.74
2022-12-08T06:32:52.601Z,64.61
2022-12-08T06:33:52.607Z,64.61
2022-12-08T06:34:52.586Z,62.84
2022-12-08T06:35:52.578Z,62.52
2022-12-08T06:36:52.573Z,61.39
2022-12-08T06:37:52.694Z,63.16
2022-12-08T06:38:52.559Z,66.39
2022-12-08T06:39:52.551Z,63.16
2022-12-08T06:40:52.546Z,65.58
2022-12-08T06:41:52.529Z,64.45
2022-12-08T06:42:52.518Z,64.61
2022-12-08T06:43:52.632Z,64.94
2022-12-08T06:44:52.517Z,62.52
2022-12-08T06:45:52.546Z,61.55
2022-12-08T06:46:52.520Z,63.81
2022-12-08T06:47:52.484Z,64.45
2022-12-08T06:48:52.484Z,65.42
2022-12-08T06:49:52.469Z,65.42
2022-12-08T06:50:52.461Z,63.33
2022-12-08T06:51:52.451Z,63.81
2022-12-08T06:53:02.689Z,66.06
2022-12-08T06:53:54.468Z,65.42
2022-12-08T06:54:52.484Z,63.65
2022-12-08T06:55:59.434Z,62.52
2022-12-08T06:56:54.420Z,63.97
2022-12-08T06:57:54.169Z,64.45
2022-12-08T06:58:53.438Z,64.45
2022-12-08T06:59:52.436Z,64.45
2022-12-08T07:00:52.480Z,64.94
2022-12-08T07:01:52.487Z,61.55
2022-12-08T07:02:52.440Z,65.90
2022-12-08T07:03:52.359Z,61.23
2022-12-08T07:04:53.112Z,61.07
2022-12-08T07:05:52.345Z,65.42
2022-12-08T07:06:52.334Z,63.16
2022-12-08T07:07:52.434Z,63.81
2022-12-08T07:08:52.325Z,60.91
2022-12-08T07:09:52.317Z,60.59
2022-12-08T07:10:52.361Z,67.03
2022-12-08T07:11:52.296Z,64.13
2022-12-08T07:12:52.285Z,60.42
2022-12-08T07:13:52.287Z,61.23
2022-12-08T07:14:52.277Z,61.39
2022-12-08T07:15:52.276Z,61.87
2022-12-08T07:16:52.368Z,61.07
2022-12-08T07:17:57.892Z,63.81
2022-12-08T07:18:54.244Z,66.06
2022-12-08T07:19:53.134Z,61.55
2022-12-08T07:20:52.241Z,65.26
2022-12-08T07:21:52.214Z,60.59
2022-12-08T07:22:52.204Z,59.30
2022-12-08T07:23:57.427Z,63.97
2022-12-08T07:24:55.121Z,63.16
2022-12-08T07:25:52.191Z,64.61
2022-12-08T07:26:52.176Z,63.16
2022-12-08T07:27:52.164Z,61.55
2022-12-08T07:28:52.158Z,63.65
2022-12-08T07:29:52.148Z,64.29
2022-12-08T07:30:52.195Z,64.78
2022-12-08T07:31:52.133Z,63.33
2022-12-08T07:32:53.120Z,63.81
2022-12-08T07:33:52.138Z,61.39
2022-12-08T07:34:52.128Z,63.65
2022-12-08T07:35:52.107Z,63.49
2022-12-08T07:36:52.091Z,62.52
2022-12-08T07:37:52.085Z,60.10
2022-12-08T07:38:52.096Z,61.71
2022-12-08T07:39:52.080Z,63.65
2022-12-08T07:40:52.060Z,61.39
2022-12-08T07:41:52.054Z,62.84
2022-12-08T07:42:52.040Z,60.91
2022-12-08T07:43:52.045Z,63.65
2022-12-08T07:44:52.039Z,64.61
2022-12-08T07:45:52.093Z,62.52
2022-12-08T07:46:52.026Z,57.69
2022-12-08T07:47:52.019Z,61.07
2022-12-08T07:48:51.998Z,62.04
2022-12-08T07:49:51.995Z,62.84
2022-12-08T07:50:51.988Z,62.52
2022-12-08T07:51:51.969Z,64.45
2022-12-08T07:52:51.990Z,63.81
2022-12-08T07:53:54.548Z,62.84
2022-12-08T07:54:53.008Z,63.49
2022-12-08T07:55:51.946Z,63.00
2022-12-08T07:56:51.953Z,65.58
2022-12-08T07:57:51.921Z,62.68
2022-12-08T07:58:51.920Z,64.13
2022-12-08T07:59:51.907Z,65.42
2022-12-08T08:00:51.935Z,63.49
2022-12-08T08:02:06.517Z,62.36
2022-12-08T08:02:53.974Z,63.65
2022-12-08T08:03:51.871Z,60.75
2022-12-08T08:04:51.946Z,61.55
2022-12-08T08:05:51.857Z,60.59
2022-12-08T08:06:51.863Z,62.36
2022-12-08T08:07:51.932Z,64.78
2022-12-08T08:08:51.832Z,60.26
2022-12-08T08:09:51.835Z,64.45
2022-12-08T08:10:51.821Z,60.42
2022-12-08T08:12:14.419Z,64.29
2022-12-08T08:12:53.817Z,64.78
2022-12-08T08:13:51.826Z,63.97
2022-12-08T08:14:52.632Z,62.68
2022-12-08T08:15:51.889Z,62.20
2022-12-08T08:16:51.927Z,60.75
2022-12-08T08:17:51.759Z,63.00
2022-12-08T08:18:52.630Z,65.42
2022-12-08T08:19:53.637Z,66.06
2022-12-08T08:20:51.753Z,65.42
2022-12-08T08:21:51.742Z,65.26
2022-12-08T08:22:51.729Z,68.32
2022-12-08T08:23:51.720Z,67.03
2022-12-08T08:24:51.741Z,64.94
2022-12-08T08:25:51.700Z,65.26
2022-12-08T08:26:51.697Z,66.39
2022-12-08T08:27:51.682Z,67.35
2022-12-08T08:28:51.680Z,64.78
2022-12-08T08:29:51.665Z,66.06
2022-12-08T08:30:51.729Z,64.13
2022-12-08T08:31:51.666Z,65.58
2022-12-08T08:32:51.643Z,65.42
2022-12-08T08:33:52.211Z,65.74
2022-12-08T08:34:51.626Z,65.42
2022-12-08T08:35:51.626Z,62.84
2022-12-08T08:36:51.727Z,64.94
2022-12-08T08:37:52.061Z,65.10
2022-12-08T08:38:51.604Z,67.35
2022-12-08T08:39:51.596Z,65.10
2022-12-08T08:40:51.583Z,66.23
2022-12-08T08:41:51.604Z,67.51
2022-12-08T08:42:51.573Z,67.19
2022-12-08T08:43:51.560Z,64.61
2022-12-08T08:44:51.552Z,63.81
2022-12-08T08:45:51.555Z,64.78
2022-12-08T08:46:51.569Z,61.39
2022-12-08T08:47:52.528Z,64.61
2022-12-08T08:48:51.523Z,68.96
2022-12-08T08:49:51.504Z,65.58
2022-12-08T08:50:51.519Z,66.87
2022-12-08T08:51:51.523Z,64.29
2022-12-08T08:52:51.472Z,64.78
2022-12-08T08:53:52.477Z,64.45
2022-12-08T08:54:52.142Z,65.26
2022-12-08T08:55:51.452Z,65.42
2022-12-08T08:56:51.466Z,64.61
2022-12-08T08:57:51.444Z,66.39
2022-12-08T08:58:51.447Z,64.13
2022-12-08T08:59:51.459Z,64.78
2022-12-08T09:00:51.449Z,66.06
2022-12-08T09:01:51.561Z,64.94
2022-12-08T09:02:51.404Z,67.51
2022-12-08T09:03:51.432Z,67.84
2022-12-08T09:04:51.507Z,67.19
2022-12-08T09:05:51.458Z,64.13
2022-12-08T09:06:51.384Z,64.29
2022-12-08T09:07:51.408Z,64.29
2022-12-08T09:08:51.348Z,63.81
2022-12-08T09:09:51.340Z,65.42
2022-12-08T09:10:51.343Z,64.29
2022-12-08T09:11:51.339Z,66.39
2022-12-08T09:12:52.213Z,63.49
2022-12-08T09:13:51.319Z,62.20
2022-12-08T09:14:51.318Z,61.07
2022-12-08T09:15:51.374Z,65.90
2022-12-08T09:16:51.338Z,64.13
2022-12-08T09:17:52.217Z,63.81
2022-12-08T09:18:51.285Z,65.58
2022-12-08T09:19:51.261Z,64.13
2022-12-08T09:20:51.260Z,64.78
2022-12-08T09:21:51.260Z,66.55
2022-12-08T09:22:52.145Z,64.45
2022-12-08T09:23:51.249Z,65.10
2022-12-08T09:24:51.221Z,64.78
2022-12-08T09:25:51.282Z,65.26
2022-12-08T09:26:51.213Z,68.32
2022-12-08T09:27:51.203Z,63.33
2022-12-08T09:28:51.191Z,66.87
2022-12-08T09:29:51.186Z,65.26
2022-12-08T09:30:51.219Z,65.10
2022-12-08T09:31:51.214Z,64.29
2022-12-08T09:32:51.166Z,63.49
2022-12-08T09:33:51.153Z,64.45
2022-12-08T09:34:52.341Z,67.84
2022-12-08T09:35:52.130Z,68.64
2022-12-08T09:36:51.644Z,67.68
2022-12-08T09:37:51.117Z,63.65
2022-12-08T09:38:51.138Z,60.75
2022-12-08T09:39:51.104Z,65.90
2022-12-08T09:40:51.101Z,64.61
2022-12-08T09:41:51.089Z,62.20
2022-12-08T09:42:51.076Z,64.78
2022-12-08T09:43:51.079Z,65.42
2022-12-08T09:44:51.063Z,65.10
2022-12-08T09:45:51.053Z,64.45
2022-12-08T09:46:51.181Z,63.97
2022-12-08T09:47:51.037Z,64.61
2022-12-08T09:48:51.026Z,63.33
2022-12-08T09:49:51.024Z,68.32
2022-12-08T09:50:51.016Z,65.26
2022-12-08T09:51:51.006Z,64.29
2022-12-08T09:52:51.026Z,63.16
2022-12-08T09:53:50.989Z,64.13
2022-12-08T09:54:50.983Z,63.81
2022-12-08T09:55:50.985Z,63.00
2022-12-08T09:56:50.969Z,64.29
2022-12-08T09:57:56.099Z,66.23
2022-12-08T09:58:51.954Z,64.13
2022-12-08T09:59:50.945Z,64.94
2022-12-08T10:00:50.964Z,65.26
2022-12-08T10:01:51.073Z,64.45
2022-12-08T10:02:50.923Z,67.35
2022-12-08T10:03:50.913Z,67.19
2022-12-08T10:04:50.940Z,65.10
2022-12-08T10:05:50.910Z,64.13
2022-12-08T10:06:50.904Z,63.00
2022-12-08T10:07:50.943Z,61.71
2022-12-08T10:08:50.867Z,65.42
2022-12-08T10:09:50.887Z,62.04
2022-12-08T10:10:50.932Z,64.61
2022-12-08T10:11:50.844Z,63.16
2022-12-08T10:12:50.853Z,65.10
2022-12-08T10:13:50.853Z,63.16
2022-12-08T10:14:50.841Z,61.87
2022-12-08T10:15:50.874Z,61.87
2022-12-08T10:16:50.826Z,63.16
2022-12-08T10:17:50.805Z,64.29
2022-12-08T10:18:50.799Z,65.42
2022-12-08T10:19:50.803Z,63.16
2022-12-08T10:20:50.830Z,61.71
2022-12-08T10:21:50.772Z,63.33
2022-12-08T10:22:50.760Z,64.61
2022-12-08T10:23:50.780Z,62.68
2022-12-08T10:24:50.755Z,62.68
2022-12-08T10:25:50.742Z,63.00
2022-12-08T10:26:50.739Z,66.39
2022-12-08T10:27:50.723Z,60.10
2022-12-08T10:28:50.717Z,61.39
2022-12-08T10:29:50.725Z,63.49
2022-12-08T10:30:50.710Z,64.45
2022-12-08T10:31:50.767Z,63.65
2022-12-08T10:32:50.687Z,67.19
2022-12-08T10:33:50.678Z,68.48
2022-12-08T10:34:54.972Z,62.52
2022-12-08T10:35:52.706Z,66.55
2022-12-08T10:36:51.235Z,67.51
2022-12-08T10:37:50.770Z,66.87
2022-12-08T10:38:50.634Z,62.68
2022-12-08T10:39:50.632Z,62.68
2022-12-08T10:40:50.651Z,63.00
2022-12-08T10:41:50.611Z,65.90
2022-12-08T10:42:52.236Z,65.26
2022-12-08T10:43:50.723Z,61.23
2022-12-08T10:44:50.587Z,65.74
2022-12-08T10:45:50.634Z,63.65
2022-12-08T10:46:50.635Z,60.75
2022-12-08T10:47:55.269Z,62.84
2022-12-08T10:48:52.604Z,61.87
2022-12-08T10:49:50.572Z,60.59
2022-12-08T10:50:50.543Z,65.42
2022-12-08T10:51:50.561Z,61.55
2022-12-08T10:52:50.539Z,65.26
2022-12-08T10:53:50.552Z,63.65
2022-12-08T10:54:50.520Z,65.42
2022-12-08T10:55:50.520Z,63.65
2022-12-08T10:56:50.533Z,65.90
2022-12-08T10:57:50.550Z,66.06
2022-12-08T10:58:50.492Z,66.87
2022-12-08T10:59:50.489Z,66.87
2022-12-08T11:00:51.247Z,62.68
2022-12-08T11:01:50.608Z,64.61
2022-12-08T11:02:51.584Z,62.68
2022-12-08T11:03:50.442Z,60.59
2022-12-08T11:04:51.459Z,65.42
2022-12-08T11:05:50.522Z,65.10
2022-12-08T11:06:50.457Z,63.33
2022-12-08T11:07:51.287Z,61.87
2022-12-08T11:08:50.440Z,62.84
2022-12-08T11:09:50.413Z,64.94
2022-12-08T11:10:50.398Z,64.13
2022-12-08T11:11:50.385Z,61.87
2022-12-08T11:12:50.382Z,64.45
2022-12-08T11:13:50.367Z,67.03
2022-12-08T11:14:50.380Z,64.61
2022-12-08T11:15:50.354Z,66.71
2022-12-08T11:16:51.201Z,64.13
2022-12-08T11:17:53.370Z,61.23
2022-12-08T11:18:52.376Z,65.58
2022-12-08T11:19:50.326Z,65.90
2022-12-08T11:20:50.342Z,65.26
2022-12-08T11:21:50.312Z,66.06
2022-12-08T11:22:51.234Z,63.16
2022-12-08T11:23:50.300Z,63.49
2022-12-08T11:24:50.325Z,65.42
2022-12-08T11:25:50.277Z,64.29
2022-12-08T11:26:50.307Z,61.07
2022-12-08T11:27:50.267Z,65.42
2022-12-08T11:28:50.252Z,66.71
2022-12-08T11:29:50.245Z,64.94
2022-12-08T11:30:50.262Z,67.03
2022-12-08T11:31:50.313Z,63.16
2022-12-08T11:32:50.219Z,64.45
2022-12-08T11:33:50.275Z,63.16
2022-12-08T11:34:50.212Z,62.20
2022-12-08T11:35:50.200Z,66.39
2022-12-08T11:36:50.198Z,63.49
2022-12-08T11:37:50.185Z,63.16
2022-12-08T11:38:50.173Z,62.04
2022-12-08T11:39:50.190Z,60.59
2022-12-08T11:40:50.182Z,66.06
2022-12-08T11:41:50.155Z,63.65
2022-12-08T11:42:50.148Z,65.58
2022-12-08T11:43:50.137Z,65.42
2022-12-08T11:44:50.135Z,63.97
2022-12-08T11:45:50.151Z,61.23
2022-12-08T11:46:50.110Z,60.91
2022-12-08T11:47:55.465Z,59.46
2022-12-08T11:48:52.123Z,65.58
2022-12-08T11:49:50.120Z,65.74
2022-12-08T11:50:50.080Z,60.42
2022-12-08T11:51:50.098Z,61.87
2022-12-08T11:52:50.072Z,63.65
2022-12-08T11:53:50.058Z,66.23
2022-12-08T11:54:50.082Z,64.45
2022-12-08T11:55:50.674Z,62.52
2022-12-08T11:56:51.073Z,62.04
2022-12-08T11:57:50.111Z,66.23
2022-12-08T11:58:50.026Z,63.97
2022-12-08T11:59:50.010Z,63.81
2022-12-08T12:00:50.010Z,62.84
2022-12-08T12:01:50.054Z,64.94
2022-12-08T12:02:50.090Z,64.78
2022-12-08T12:03:50.016Z,63.65
2022-12-08T12:04:49.980Z,62.84
2022-12-08T12:06:12.967Z,62.20
2022-12-08T12:06:55.728Z,64.45
2022-12-08T12:07:51.007Z,61.39
2022-12-08T12:08:49.945Z,61.07
2022-12-08T12:09:49.927Z,66.39
2022-12-08T12:10:49.919Z,63.16
2022-12-08T12:11:49.917Z,63.65
2022-12-08T12:12:50.675Z,65.26
2022-12-08T12:13:49.974Z,65.58
2022-12-08T12:14:49.893Z,65.10
2022-12-08T12:15:49.887Z,66.87
2022-12-08T12:16:49.941Z,65.26
2022-12-08T12:17:49.878Z,64.78
2022-12-08T12:18:50.676Z,65.74
2022-12-08T12:19:50.775Z,65.26
2022-12-08T12:20:49.850Z,66.06
2022-12-08T12:21:49.861Z,65.26
2022-12-08T12:22:49.842Z,65.58
2022-12-08T12:23:49.822Z,67.19
2022-12-08T12:24:49.823Z,60.59
2022-12-08T12:25:49.809Z,60.59
2022-12-08T12:26:50.745Z,61.07
2022-12-08T12:27:49.791Z,62.68
2022-12-08T12:28:49.800Z,61.23
2022-12-08T12:30:05.580Z,61.23
2022-12-08T12:30:51.806Z,64.29
2022-12-08T12:31:49.753Z,62.04
2022-12-08T12:32:49.765Z,63.49
2022-12-08T12:33:49.729Z,64.94
2022-12-08T12:34:50.763Z,63.33
2022-12-08T12:35:49.718Z,63.97
2022-12-08T12:36:49.708Z,59.30
2022-12-08T12:37:49.953Z,59.30
2022-12-08T12:38:49.700Z,61.23
2022-12-08T12:39:49.686Z,60.59
2022-12-08T12:40:49.683Z,61.55
2022-12-08T12:41:49.676Z,60.91
2022-12-08T12:42:49.704Z,64.13
2022-12-08T12:43:51.267Z,63.00
2022-12-08T12:44:50.174Z,59.30
2022-12-08T12:45:49.751Z,57.04
2022-12-08T12:46:49.662Z,63.33
2022-12-08T12:47:54.293Z,63.16
2022-12-08T12:48:51.628Z,64.13
2022-12-08T12:49:49.640Z,66.55
2022-12-08T12:50:49.627Z,65.26
2022-12-08T12:51:49.644Z,63.16
2022-12-08T12:52:49.587Z,61.71
2022-12-08T12:53:49.577Z,60.91
2022-12-08T12:54:49.617Z,64.94
2022-12-08T12:55:49.580Z,64.61